Terminal Aerodrome Forecast
Issued by NWS Jackson, MS

Home | Current Version | Previous Version | Text Only | Print | Product List | Glossary On
Versions: 1 2 3 4 5 6 7 8 9 10 11 12 13 14 15 16 17
000
FTUS44 KMEG 202327
TAFTUP
TAF
KTUP 202327Z 2100/2124 12004KT P6SM BKN250
     FM210400 16008KT P6SM VCSH SCT060 BKN150
     FM210700 18004KT P6SM VCSH OVC060
     FM211100 17009KT 4SM -SHRA OVC025
     FM211500 17007KT 4SM -SHRA BR OVC007
     FM212100 15005KT P6SM OVC015=

USA.gov is the U.S. government's official web portal to all federal, state and local government web resources and services.